createdAt,value
2018-04-24T00:02:04.752Z,17.10
2018-04-24T00:04:32.279Z,13.30
2018-04-24T00:06:59.728Z,12.83
2018-04-24T00:09:27.224Z,15.43
2018-04-24T00:11:54.707Z,16.80
2018-04-24T00:14:22.934Z,17.87
2018-04-24T00:16:50.416Z,15.23
2018-04-24T00:19:17.912Z,15.30
2018-04-24T00:21:45.401Z,14.37
2018-04-24T00:24:12.948Z,12.43
2018-04-24T00:26:40.441Z,17.37
2018-04-24T00:29:07.948Z,12.57
2018-04-24T00:31:35.440Z,17.43
2018-04-24T00:34:02.909Z,15.30
2018-04-24T00:36:30.371Z,14.90
2018-04-24T00:38:57.857Z,14.90
2018-04-24T00:41:26.094Z,18.43
2018-04-24T00:43:53.581Z,12.17
2018-04-24T00:46:21.825Z,19.70
2018-04-24T00:48:49.284Z,12.90
2018-04-24T00:51:16.768Z,14.57
2018-04-24T00:53:44.226Z,11.73
2018-04-24T00:56:11.704Z,13.70
2018-04-24T00:58:39.961Z,12.77
2018-04-24T01:01:07.436Z,9.83
2018-04-24T01:03:35.688Z,10.03
2018-04-24T01:06:03.144Z,12.30
2018-04-24T01:08:30.613Z,14.03
2018-04-24T01:10:58.112Z,12.97
2018-04-24T01:13:25.548Z,14.60
2018-04-24T01:15:53.005Z,16.83
2018-04-24T01:18:21.308Z,13.60
2018-04-24T01:20:48.764Z,11.30
2018-04-24T01:23:16.254Z,15.70
2018-04-24T01:25:43.704Z,12.23
2018-04-24T01:28:11.185Z,14.90
2018-04-24T01:30:38.640Z,16.10
2018-04-24T01:33:07.241Z,16.83
2018-04-24T01:35:35.452Z,16.33
2018-04-24T01:38:02.935Z,18.00
2018-04-24T01:40:30.399Z,16.00
2018-04-24T01:42:57.876Z,17.60
2018-04-24T01:45:25.335Z,13.90
2018-04-24T01:47:52.806Z,20.27
2018-04-24T01:50:20.271Z,15.50
2018-04-24T01:52:47.759Z,18.63
2018-04-24T01:55:15.232Z,20.53
2018-04-24T01:57:42.699Z,19.77
2018-04-24T02:00:10.157Z,17.10
2018-04-24T02:02:37.641Z,18.27
2018-04-24T02:05:05.128Z,21.07
2018-04-24T02:07:32.588Z,17.77
2018-04-24T02:10:00.049Z,19.13
2018-04-24T02:12:27.520Z,16.93
2018-04-24T02:14:55.001Z,20.00
2018-04-24T02:17:22.460Z,23.47
2018-04-24T02:19:49.952Z,16.43
2018-04-24T02:22:18.148Z,18.00
2018-04-24T02:24:45.604Z,19.87
2018-04-24T02:27:13.061Z,17.97
2018-04-24T02:29:40.536Z,16.40
2018-04-24T02:32:07.985Z,17.23
2018-04-24T02:34:35.444Z,16.63
2018-04-24T02:37:02.900Z,14.20
2018-04-24T02:39:30.357Z,16.50
2018-04-24T02:41:57.809Z,16.87
2018-04-24T02:44:25.253Z,14.23
2018-04-24T02:46:52.725Z,21.47
2018-04-24T02:49:20.165Z,18.43
2018-04-24T02:51:47.624Z,13.00
2018-04-24T02:54:15.093Z,13.77
2018-04-24T02:56:42.549Z,10.70
2018-04-24T02:59:10.009Z,12.23
2018-04-24T03:01:37.468Z,15.23
2018-04-24T03:04:04.930Z,15.37
2018-04-24T03:06:32.378Z,10.67
2018-04-24T03:08:59.832Z,14.70
2018-04-24T03:11:27.290Z,9.80
2018-04-24T03:13:55.053Z,12.30
2018-04-24T03:16:22.509Z,12.47
2018-04-24T03:18:49.940Z,9.97
2018-04-24T03:21:18.186Z,11.13
2018-04-24T03:23:45.673Z,12.63
2018-04-24T03:26:13.888Z,11.50
2018-04-24T03:28:41.329Z,11.30
2018-04-24T03:31:08.792Z,15.37
2018-04-24T03:33:36.229Z,11.97
2018-04-24T03:36:03.698Z,11.47
2018-04-24T03:38:31.168Z,15.77
2018-04-24T03:40:58.617Z,12.60
2018-04-24T03:43:26.848Z,14.97
2018-04-24T03:45:54.351Z,10.43
2018-04-24T03:48:21.805Z,13.77
2018-04-24T03:50:49.268Z,15.60
2018-04-24T03:53:16.740Z,12.17
2018-04-24T03:55:44.188Z,11.17
2018-04-24T03:58:11.640Z,14.60
2018-04-24T04:00:39.093Z,11.67
2018-04-24T04:03:06.548Z,12.50
2018-04-24T04:05:34.005Z,13.47
2018-04-24T04:08:01.467Z,12.30
2018-04-24T04:10:28.900Z,14.40
2018-04-24T04:12:56.362Z,14.70
2018-04-24T04:15:23.817Z,18.53
2018-04-24T04:18:03.189Z,12.93
2018-04-24T04:20:42.616Z,13.97
2018-04-24T04:23:22.686Z,18.73
2018-04-24T04:25:50.136Z,14.33
2018-04-24T04:28:17.582Z,16.73
2018-04-24T04:30:45.037Z,16.20
2018-04-24T04:33:12.478Z,15.37
2018-04-24T04:35:39.953Z,17.87
2018-04-24T04:38:07.416Z,13.10
2018-04-24T04:40:34.864Z,17.70
2018-04-24T04:43:02.330Z,16.63
2018-04-24T04:45:29.777Z,14.37
2018-04-24T04:47:57.352Z,20.87
2018-04-24T04:50:24.692Z,14.90
2018-04-24T04:52:52.140Z,16.00
2018-04-24T04:55:19.598Z,18.13
2018-04-24T04:57:47.077Z,17.33
2018-04-24T05:00:14.535Z,18.37
2018-04-24T05:02:41.985Z,16.97
2018-04-24T05:05:09.453Z,15.00
2018-04-24T05:07:36.882Z,17.80
2018-04-24T05:10:05.121Z,18.43
2018-04-24T05:12:32.572Z,15.37
2018-04-24T05:15:00.879Z,17.90
2018-04-24T05:17:28.343Z,16.17
2018-04-24T05:19:55.795Z,18.90
2018-04-24T05:22:24.012Z,15.70
2018-04-24T05:24:51.469Z,24.43
2018-04-24T05:27:18.928Z,19.63
2018-04-24T05:29:46.391Z,16.43
2018-04-24T05:32:13.858Z,18.63
2018-04-24T05:34:41.323Z,17.73
2018-04-24T05:37:08.745Z,21.37
2018-04-24T05:39:36.217Z,18.67
2018-04-24T05:42:03.661Z,20.53
2018-04-24T05:44:31.096Z,17.57
2018-04-24T05:46:58.573Z,19.13
2018-04-24T05:49:26.040Z,22.83
2018-04-24T05:51:53.480Z,25.23
2018-04-24T05:54:20.949Z,21.27
2018-04-24T05:56:48.407Z,17.77
2018-04-24T05:59:15.864Z,25.97
2018-04-24T06:01:43.309Z,21.00
2018-04-24T06:04:10.771Z,21.97
2018-04-24T06:06:38.224Z,19.70
2018-04-24T06:09:05.669Z,25.13
2018-04-24T06:11:33.135Z,19.53
2018-04-24T06:14:00.578Z,22.80
2018-04-24T06:16:28.046Z,23.90
2018-04-24T06:18:55.516Z,19.73
2018-04-24T06:21:22.968Z,19.57
2018-04-24T06:23:50.428Z,21.67
2018-04-24T06:26:17.889Z,22.20
2018-04-24T06:28:45.386Z,20.57
2018-04-24T06:31:12.837Z,26.00
2018-04-24T06:33:41.074Z,19.87
2018-04-24T06:36:08.520Z,22.87
2018-04-24T06:38:36.008Z,19.83
2018-04-24T06:41:03.456Z,24.97
2018-04-24T06:43:30.905Z,19.60
2018-04-24T06:45:59.136Z,24.30
2018-04-24T06:48:26.606Z,20.30
2018-04-24T06:50:54.066Z,22.20
2018-04-24T06:53:21.519Z,22.13
2018-04-24T06:55:49.069Z,22.50
2018-04-24T06:58:16.489Z,22.10
2018-04-24T07:00:43.956Z,24.33
2018-04-24T07:03:11.406Z,23.27
2018-04-24T07:05:38.867Z,22.47
2018-04-24T07:08:06.306Z,19.20
2018-04-24T07:10:33.754Z,20.63
2018-04-24T07:13:01.216Z,22.23
2018-04-24T07:15:28.656Z,24.67
2018-04-24T07:17:56.142Z,19.50
2018-04-24T07:20:23.584Z,22.37
2018-04-24T07:22:51.957Z,22.43
2018-04-24T07:25:19.409Z,18.33
2018-04-24T07:27:46.876Z,23.80
2018-04-24T07:30:15.105Z,26.63
2018-04-24T07:32:42.581Z,22.97
2018-04-24T07:35:10.040Z,28.20
2018-04-24T07:37:37.525Z,21.43
2018-04-24T07:40:04.968Z,26.97
2018-04-24T07:42:32.593Z,21.93
2018-04-24T07:45:00.097Z,23.57
2018-04-24T07:47:27.524Z,26.60
2018-04-24T07:49:55.005Z,23.10
2018-04-24T07:52:22.491Z,26.90
2018-04-24T07:54:50.005Z,27.10
2018-04-24T07:57:17.457Z,23.10
2018-04-24T07:59:44.920Z,23.23
2018-04-24T08:02:12.392Z,23.43
2018-04-24T08:04:39.850Z,21.90
2018-04-24T08:07:08.139Z,21.97
2018-04-24T08:09:35.628Z,22.87
2018-04-24T08:12:03.893Z,23.37
2018-04-24T08:14:31.333Z,24.93
2018-04-24T08:16:58.793Z,27.30
2018-04-24T08:19:26.237Z,23.87
2018-04-24T08:21:54.470Z,25.07
2018-04-24T08:24:21.967Z,24.10
2018-04-24T08:26:49.425Z,24.20
2018-04-24T08:29:16.865Z,24.43
2018-04-24T08:31:44.320Z,26.00
2018-04-24T08:34:11.781Z,27.37
2018-04-24T08:36:39.234Z,28.20
2018-04-24T08:39:06.728Z,26.03
2018-04-24T08:41:34.541Z,24.93
2018-04-24T08:44:01.997Z,22.67
2018-04-24T08:46:29.474Z,27.33
2018-04-24T08:48:56.967Z,28.53
2018-04-24T08:51:24.424Z,23.37
2018-04-24T08:53:52.986Z,23.27
2018-04-24T08:56:21.253Z,26.33
2018-04-24T08:58:48.738Z,26.23
2018-04-24T09:01:16.191Z,31.03
2018-04-24T09:03:43.641Z,28.57
2018-04-24T09:06:11.112Z,29.03
2018-04-24T09:08:38.637Z,29.13
2018-04-24T09:11:06.025Z,29.90
2018-04-24T09:13:33.484Z,26.90
2018-04-24T09:16:00.943Z,30.33
2018-04-24T09:18:29.149Z,25.70
2018-04-24T09:20:57.410Z,29.23
2018-04-24T09:23:24.896Z,25.97
2018-04-24T09:25:52.373Z,30.10
2018-04-24T09:28:20.581Z,28.77
2018-04-24T09:30:48.022Z,22.73
2018-04-24T09:33:15.492Z,29.27
2018-04-24T09:35:42.951Z,26.50
2018-04-24T09:38:10.408Z,31.93
2018-04-24T09:40:37.884Z,28.70
2018-04-24T09:43:05.894Z,28.73
2018-04-24T09:45:34.229Z,24.47
2018-04-24T09:48:01.688Z,33.70
2018-04-24T09:50:29.129Z,24.87
2018-04-24T09:52:56.678Z,26.23
2018-04-24T09:55:24.833Z,28.90
2018-04-24T09:57:52.318Z,23.53
2018-04-24T10:00:25.393Z,25.20
2018-04-24T10:02:52.876Z,28.30
2018-04-24T10:05:20.347Z,29.50
2018-04-24T10:07:47.816Z,26.40
2018-04-24T10:10:15.248Z,23.03
2018-04-24T10:12:42.715Z,27.90
2018-04-24T10:15:10.205Z,21.93
2018-04-24T10:17:37.715Z,24.87
2018-04-24T10:20:05.406Z,19.77
2018-04-24T10:22:32.974Z,26.67
2018-04-24T10:25:01.237Z,21.70
2018-04-24T10:27:28.672Z,23.90
2018-04-24T10:29:56.137Z,25.83
2018-04-24T10:32:23.597Z,20.93
2018-04-24T10:34:51.040Z,24.07
2018-04-24T10:37:18.509Z,21.27
2018-04-24T10:39:45.957Z,19.20
2018-04-24T10:42:13.415Z,19.90
2018-04-24T10:44:40.883Z,25.50
2018-04-24T10:47:08.349Z,22.47
2018-04-24T10:49:36.590Z,21.20
2018-04-24T10:52:04.783Z,22.60
2018-04-24T10:54:32.244Z,24.30
2018-04-24T10:56:59.702Z,24.83
2018-04-24T10:59:27.928Z,29.13
2018-04-24T11:01:56.145Z,24.00
2018-04-24T11:04:23.613Z,30.27
2018-04-24T11:06:51.072Z,26.47
2018-04-24T11:09:19.300Z,26.83
2018-04-24T11:11:46.776Z,29.53
2018-04-24T11:14:14.234Z,27.13
2018-04-24T11:16:41.673Z,31.67
2018-04-24T11:19:09.151Z,27.60
2018-04-24T11:21:36.589Z,30.67
2018-04-24T11:24:04.061Z,32.03
2018-04-24T11:26:31.522Z,34.87
2018-04-24T11:28:58.995Z,34.73
2018-04-24T11:31:26.436Z,31.07
2018-04-24T11:33:53.876Z,33.50
2018-04-24T11:36:21.373Z,31.10
2018-04-24T11:38:48.808Z,28.93
2018-04-24T11:41:16.287Z,28.17
2018-04-24T11:43:43.740Z,29.67
2018-04-24T11:46:11.178Z,31.40
2018-04-24T11:48:38.737Z,28.07
2018-04-24T11:51:06.093Z,30.23
2018-04-24T11:53:33.569Z,25.43
2018-04-24T11:56:01.026Z,25.33
2018-04-24T11:58:28.464Z,29.77
2018-04-24T12:00:56.152Z,26.43
2018-04-24T12:03:23.606Z,26.97
2018-04-24T12:05:51.068Z,20.00
2018-04-24T12:08:18.531Z,25.10
2018-04-24T12:10:45.977Z,22.80
2018-04-24T12:13:13.444Z,21.63
2018-04-24T12:15:40.987Z,21.33
2018-04-24T12:18:08.369Z,22.50
2018-04-24T12:20:35.848Z,24.87
2018-04-24T12:23:03.354Z,21.97
2018-04-24T12:25:30.820Z,24.80
2018-04-24T12:27:58.284Z,20.83
2018-04-24T12:30:25.805Z,19.73
2018-04-24T12:32:53.181Z,17.33
2018-04-24T12:35:20.632Z,19.90
2018-04-24T12:37:48.094Z,26.37
2018-04-24T12:40:15.573Z,20.30
2018-04-24T12:42:43.050Z,23.70
2018-04-24T12:45:10.547Z,16.10
2018-04-24T12:47:37.962Z,14.70
2018-04-24T12:50:05.432Z,18.63
2018-04-24T12:52:32.872Z,14.40
2018-04-24T12:55:01.557Z,12.63
2018-04-24T12:57:29.053Z,17.23
2018-04-24T12:59:56.525Z,13.17
2018-04-24T13:02:23.966Z,20.07
2018-04-24T13:04:51.429Z,11.93
2018-04-24T13:07:18.940Z,14.90
2018-04-24T13:09:46.377Z,14.70
2018-04-24T13:12:13.847Z,14.00
2018-04-24T13:14:41.321Z,16.73
2018-04-24T13:17:08.759Z,13.17
2018-04-24T13:19:36.221Z,19.40
2018-04-24T13:22:03.684Z,18.97
2018-04-24T13:24:31.153Z,14.87
2018-04-24T13:26:58.634Z,13.47
2018-04-24T13:29:26.865Z,20.07
2018-04-24T13:31:54.288Z,14.83
2018-04-24T13:34:21.839Z,14.13
2018-04-24T13:36:49.314Z,19.23
2018-04-24T13:39:16.776Z,14.23
2018-04-24T13:41:44.239Z,15.40
2018-04-24T13:44:11.848Z,16.50
2018-04-24T13:46:39.385Z,12.70
2018-04-24T13:49:07.603Z,16.90
2018-04-24T13:51:35.050Z,16.63
2018-04-24T13:54:03.260Z,13.63
2018-04-24T13:56:30.708Z,15.13
2018-04-24T13:58:58.197Z,15.43
2018-04-24T14:01:25.637Z,17.27
2018-04-24T14:03:53.089Z,17.60
2018-04-24T14:06:20.617Z,14.03
2018-04-24T14:08:47.995Z,14.37
2018-04-24T14:11:15.468Z,16.53
2018-04-24T14:13:42.919Z,17.80
2018-04-24T14:16:10.388Z,12.90
2018-04-24T14:18:37.825Z,18.83
2018-04-24T14:21:05.281Z,16.90
2018-04-24T14:23:32.736Z,13.77
2018-04-24T14:26:00.192Z,15.40
2018-04-24T14:28:27.748Z,13.67
2018-04-24T14:30:55.173Z,16.87
2018-04-24T14:33:23.377Z,14.07
2018-04-24T14:35:50.877Z,20.60
2018-04-24T14:38:18.332Z,15.87
2018-04-24T14:40:45.789Z,16.23
2018-04-24T14:43:13.224Z,13.50
2018-04-24T14:45:41.457Z,21.10
2018-04-24T14:48:08.914Z,20.60
2018-04-24T14:50:37.168Z,19.73
2018-04-24T14:53:04.617Z,14.80
2018-04-24T14:55:32.081Z,18.30
2018-04-24T14:57:59.535Z,16.53
2018-04-24T15:00:26.989Z,18.97
2018-04-24T15:02:54.451Z,19.73
2018-04-24T15:05:21.931Z,17.23
2018-04-24T15:07:49.412Z,20.50
2018-04-24T15:10:16.884Z,17.73
2018-04-24T15:12:44.345Z,16.60
2018-04-24T15:15:12.548Z,17.57
2018-04-24T15:17:40.030Z,19.80
2018-04-24T15:20:08.253Z,20.83
2018-04-24T15:22:35.735Z,23.73
2018-04-24T15:25:03.164Z,15.03
2018-04-24T15:27:30.633Z,18.80
2018-04-24T15:29:58.297Z,21.27
2018-04-24T15:32:25.740Z,17.20
2018-04-24T15:34:53.215Z,18.47
2018-04-24T15:37:20.644Z,16.07
2018-04-24T15:39:48.108Z,12.67
2018-04-24T15:42:15.569Z,16.90
2018-04-24T15:44:43.037Z,22.23
2018-04-24T15:47:10.506Z,13.00
2018-04-24T15:49:37.936Z,14.93
2018-04-24T15:52:05.397Z,16.20
2018-04-24T15:54:32.843Z,13.47
2018-04-24T15:57:00.309Z,17.47
2018-04-24T15:59:27.785Z,13.53
2018-04-24T16:01:55.225Z,15.07
2018-04-24T16:04:23.445Z,17.77
2018-04-24T16:06:51.680Z,21.87
2018-04-24T16:09:19.140Z,14.00
2018-04-24T16:11:46.590Z,19.03
2018-04-24T16:14:14.049Z,15.27
2018-04-24T16:16:41.605Z,16.23
2018-04-24T16:19:08.996Z,16.73
2018-04-24T16:21:36.524Z,15.63
2018-04-24T16:24:03.988Z,14.87
2018-04-24T16:26:31.833Z,19.83
2018-04-24T16:28:59.298Z,16.27
2018-04-24T16:31:26.741Z,18.70
2018-04-24T16:33:54.295Z,15.70
2018-04-24T16:36:21.859Z,16.63
2018-04-24T16:38:49.295Z,19.13
2018-04-24T16:41:17.530Z,15.07
2018-04-24T16:43:45.008Z,17.73
2018-04-24T16:46:12.445Z,20.00
2018-04-24T16:48:39.898Z,20.33
2018-04-24T16:51:07.393Z,17.40
2018-04-24T16:53:35.587Z,13.37
2018-04-24T16:56:03.018Z,24.73
2018-04-24T16:58:31.236Z,16.23
2018-04-24T17:00:58.694Z,17.47
2018-04-24T17:03:26.152Z,13.77
2018-04-24T17:05:53.614Z,17.27
2018-04-24T17:08:22.768Z,13.57
2018-04-24T17:10:50.973Z,15.13
2018-04-24T17:13:18.446Z,16.07
2018-04-24T17:15:45.889Z,19.30
2018-04-24T17:18:13.339Z,13.97
2018-04-24T17:20:40.804Z,14.47
2018-04-24T17:23:08.280Z,13.70
2018-04-24T17:25:35.747Z,16.00
2018-04-24T17:28:03.180Z,16.83
2018-04-24T17:30:30.642Z,13.27
2018-04-24T17:32:58.976Z,15.13
2018-04-24T17:35:26.500Z,9.97
2018-04-24T17:37:53.871Z,17.13
2018-04-24T17:40:21.302Z,10.17
2018-04-24T17:42:48.856Z,15.50
2018-04-24T17:45:16.211Z,13.90
2018-04-24T17:47:43.661Z,13.23
2018-04-24T17:50:11.121Z,14.17
2018-04-24T17:52:39.368Z,16.47
2018-04-24T17:55:06.853Z,15.80
2018-04-24T17:57:34.300Z,16.07
2018-04-24T18:00:01.777Z,15.47
2018-04-24T18:02:29.236Z,20.07
2018-04-24T18:04:56.724Z,15.87
2018-04-24T18:07:24.929Z,17.10
2018-04-24T18:09:52.384Z,15.83
2018-04-24T18:12:19.864Z,14.60
2018-04-24T18:14:47.323Z,17.57
2018-04-24T18:17:14.795Z,16.77
2018-04-24T18:19:42.248Z,12.73
2018-04-24T18:22:09.705Z,10.60
2018-04-24T18:24:37.162Z,13.43
2018-04-24T18:27:04.618Z,15.27
2018-04-24T18:29:32.098Z,12.10
2018-04-24T18:31:59.561Z,11.93
2018-04-24T18:34:27.780Z,15.80
2018-04-24T18:36:55.220Z,14.97
2018-04-24T18:39:22.734Z,16.27
2018-04-24T18:41:50.185Z,22.00
2018-04-24T18:44:17.646Z,16.00
2018-04-24T18:46:45.086Z,17.80
2018-04-24T18:49:12.614Z,12.67
2018-04-24T18:51:40.081Z,17.57
2018-04-24T18:54:07.508Z,12.77
2018-04-24T18:56:34.960Z,17.17
2018-04-24T18:59:02.442Z,15.03
2018-04-24T19:01:29.897Z,14.17
2018-04-24T19:03:57.340Z,16.80
2018-04-24T19:06:24.772Z,19.73
2018-04-24T19:08:53.058Z,14.83
2018-04-24T19:11:21.291Z,12.73
2018-04-24T19:13:48.732Z,16.37
2018-04-24T19:16:16.191Z,15.50
2018-04-24T19:18:49.350Z,20.60
2018-04-24T19:21:16.808Z,21.00
2018-04-24T19:23:44.313Z,18.57
2018-04-24T19:26:11.776Z,23.63
2018-04-24T19:28:39.234Z,17.47
2018-04-24T19:31:12.296Z,16.40
2018-04-24T19:33:39.740Z,15.60
2018-04-24T19:36:07.201Z,23.33
2018-04-24T19:38:34.642Z,12.20
2018-04-24T19:41:07.762Z,14.97
2018-04-24T19:43:35.194Z,11.80
2018-04-24T19:46:02.649Z,15.17
2018-04-24T19:51:34.873Z,16.57
2018-04-24T19:54:02.327Z,19.37
2018-04-24T19:56:29.769Z,15.20
2018-04-24T19:58:57.228Z,17.57
2018-04-24T20:01:24.670Z,16.17
2018-04-24T20:03:52.177Z,17.93
2018-04-24T20:06:19.653Z,20.47
2018-04-24T20:08:47.865Z,19.10
2018-04-24T20:11:15.317Z,16.17
2018-04-24T20:13:42.777Z,20.10
2018-04-24T20:16:10.245Z,17.60
2018-04-24T20:18:37.701Z,22.93
2018-04-24T20:21:05.172Z,19.00
2018-04-24T20:23:32.614Z,28.37
2018-04-24T20:26:00.090Z,21.43
2018-04-24T20:28:27.560Z,18.47
2018-04-24T20:30:54.992Z,22.73
2018-04-24T20:33:22.457Z,28.73
2018-04-24T20:35:51.663Z,21.43
2018-04-24T20:38:19.134Z,23.80
2018-04-24T20:40:46.569Z,21.67
2018-04-24T20:43:14.033Z,21.27
2018-04-24T20:45:41.476Z,17.13
2018-04-24T20:48:08.897Z,16.83
2018-04-24T20:50:36.372Z,22.30
2018-04-24T20:53:03.940Z,24.17
2018-04-24T20:55:31.301Z,18.90
2018-04-24T20:57:58.756Z,19.97
2018-04-24T21:00:26.238Z,25.83
2018-04-24T21:02:53.687Z,24.27
2018-04-24T21:05:21.137Z,29.73
2018-04-24T21:07:48.584Z,31.33
2018-04-24T21:10:16.041Z,25.57
2018-04-24T21:12:43.491Z,32.63
2018-04-24T21:15:10.994Z,31.70
2018-04-24T21:17:38.429Z,22.63
2018-04-24T21:20:05.874Z,30.10
2018-04-24T21:22:33.341Z,28.47
2018-04-24T21:25:00.777Z,26.53
2018-04-24T21:27:28.235Z,25.77
2018-04-24T21:29:55.696Z,24.47
2018-04-24T21:32:23.143Z,28.43
2018-04-24T21:34:50.617Z,26.57
2018-04-24T21:37:19.589Z,22.80
2018-04-24T21:39:47.059Z,32.67
2018-04-24T21:42:14.508Z,30.20
2018-04-24T21:44:41.986Z,24.73
2018-04-24T21:47:09.435Z,30.00
2018-04-24T21:49:36.876Z,25.30
2018-04-24T21:52:04.341Z,28.10
2018-04-24T21:54:31.775Z,29.57
2018-04-24T21:56:59.234Z,28.90
2018-04-24T21:59:26.716Z,34.67
2018-04-24T22:01:54.170Z,21.07
2018-04-24T22:04:21.627Z,21.90
2018-04-24T22:06:49.861Z,36.17
2018-04-24T22:09:17.334Z,25.43
2018-04-24T22:11:45.096Z,28.77
2018-04-24T22:14:12.565Z,25.70
2018-04-24T22:16:40.010Z,27.10
2018-04-24T22:19:07.453Z,24.83
2018-04-24T22:21:34.918Z,27.10
2018-04-24T22:24:02.362Z,29.33
2018-04-24T22:26:29.820Z,25.03
2018-04-24T22:28:57.277Z,32.43
2018-04-24T22:31:24.750Z,27.73
2018-04-24T22:33:52.189Z,29.17
2018-04-24T22:36:19.647Z,24.47
2018-04-24T22:38:47.105Z,28.40
2018-04-24T22:41:15.341Z,27.33
2018-04-24T22:43:42.854Z,34.43
2018-04-24T22:46:10.295Z,31.60
2018-04-24T22:48:37.753Z,26.40
2018-04-24T22:51:05.188Z,31.37
2018-04-24T22:53:32.669Z,25.37
2018-04-24T22:56:00.104Z,33.43
2018-04-24T22:58:27.612Z,27.13
2018-04-24T23:00:56.178Z,37.70
2018-04-24T23:03:23.629Z,31.60
2018-04-24T23:05:51.057Z,35.07
2018-04-24T23:08:18.540Z,42.77
2018-04-24T23:10:57.732Z,32.13
2018-04-24T23:13:37.065Z,40.50
2018-04-24T23:16:16.401Z,36.90
2018-04-24T23:18:55.780Z,39.37
2018-04-24T23:21:22.727Z,35.93
2018-04-24T23:23:50.161Z,43.67
2018-04-24T23:26:18.381Z,33.00
2018-04-24T23:28:45.827Z,46.93
2018-04-24T23:31:13.284Z,36.77
2018-04-24T23:33:40.836Z,36.90
2018-04-24T23:36:08.497Z,46.43
2018-04-24T23:38:35.913Z,49.73
2018-04-24T23:41:03.377Z,39.53
2018-04-24T23:43:30.818Z,42.03
2018-04-24T23:45:58.280Z,40.27
2018-04-24T23:48:25.741Z,42.73
2018-04-24T23:50:53.940Z,34.53
2018-04-24T23:53:21.409Z,47.30
2018-04-24T23:55:48.833Z,26.67
2018-04-24T23:58:16.285Z,37.77
